sensor_id;sensor_type;location;lat;lon;timestamp;P1;durP1;ratioP1;P2;durP2;ratioP2
3068;SDS011;1545;51.728;8.796;2023-05-10T00:01:02;54.20;;;31.83;;
3068;SDS011;1545;51.728;8.796;2023-05-10T00:03:27;57.27;;;32.57;;
3068;SDS011;1545;51.728;8.796;2023-05-10T00:05:53;57.43;;;32.93;;
3068;SDS011;1545;51.728;8.796;2023-05-10T00:08:18;57.33;;;32.27;;
3068;SDS011;1545;51.728;8.796;2023-05-10T00:10:44;59.00;;;32.33;;
3068;SDS011;1545;51.728;8.796;2023-05-10T00:13:09;52.57;;;31.50;;
3068;SDS011;1545;51.728;8.796;2023-05-10T00:15:35;60.93;;;33.37;;
3068;SDS011;1545;51.728;8.796;2023-05-10T00:18:00;59.83;;;33.17;;
3068;SDS011;1545;51.728;8.796;2023-05-10T00:20:26;54.00;;;31.93;;
3068;SDS011;1545;51.728;8.796;2023-05-10T00:22:51;61.73;;;32.67;;
3068;SDS011;1545;51.728;8.796;2023-05-10T00:25:17;58.03;;;32.83;;
3068;SDS011;1545;51.728;8.796;2023-05-10T00:27:43;63.03;;;33.47;;
3068;SDS011;1545;51.728;8.796;2023-05-10T00:30:08;61.63;;;33.63;;
3068;SDS011;1545;51.728;8.796;2023-05-10T00:32:34;62.33;;;34.90;;
3068;SDS011;1545;51.728;8.796;2023-05-10T00:35:00;66.27;;;36.00;;
3068;SDS011;1545;51.728;8.796;2023-05-10T00:37:25;62.37;;;34.57;;
3068;SDS011;1545;51.728;8.796;2023-05-10T00:39:51;61.50;;;32.83;;
3068;SDS011;1545;51.728;8.796;2023-05-10T00:42:16;60.77;;;32.60;;
3068;SDS011;1545;51.728;8.796;2023-05-10T00:44:42;60.67;;;32.63;;
3068;SDS011;1545;51.728;8.796;2023-05-10T00:47:07;62.53;;;33.63;;
3068;SDS011;1545;51.728;8.796;2023-05-10T00:49:34;62.43;;;33.20;;
3068;SDS011;1545;51.728;8.796;2023-05-10T00:52:00;60.00;;;31.90;;
3068;SDS011;1545;51.728;8.796;2023-05-10T00:54:26;67.60;;;33.07;;
3068;SDS011;1545;51.728;8.796;2023-05-10T00:56:52;54.03;;;32.10;;
3068;SDS011;1545;51.728;8.796;2023-05-10T00:59:18;55.63;;;31.60;;
3068;SDS011;1545;51.728;8.796;2023-05-10T01:01:47;50.27;;;30.30;;
3068;SDS011;1545;51.728;8.796;2023-05-10T01:04:13;55.27;;;30.20;;
3068;SDS011;1545;51.728;8.796;2023-05-10T01:06:39;55.57;;;27.47;;
3068;SDS011;1545;51.728;8.796;2023-05-10T01:09:06;48.33;;;27.33;;
3068;SDS011;1545;51.728;8.796;2023-05-10T01:11:33;42.00;;;25.77;;
3068;SDS011;1545;51.728;8.796;2023-05-10T01:14:00;42.23;;;24.97;;
3068;SDS011;1545;51.728;8.796;2023-05-10T01:16:26;39.20;;;24.77;;
3068;SDS011;1545;51.728;8.796;2023-05-10T01:18:54;38.93;;;24.10;;
3068;SDS011;1545;51.728;8.796;2023-05-10T01:21:40;37.93;;;22.83;;
3068;SDS011;1545;51.728;8.796;2023-05-10T01:27:25;35.03;;;21.80;;
3068;SDS011;1545;51.728;8.796;2023-05-10T01:33:10;40.97;;;20.23;;
3068;SDS011;1545;51.728;8.796;2023-05-10T01:43:55;41.63;;;19.93;;
3068;SDS011;1545;51.728;8.796;2023-05-10T01:46:35;29.27;;;18.87;;
3068;SDS011;1545;51.728;8.796;2023-05-10T01:49:03;37.30;;;20.13;;
3068;SDS011;1545;51.728;8.796;2023-05-10T01:51:36;36.73;;;18.77;;
3068;SDS011;1545;51.728;8.796;2023-05-10T01:54:06;30.87;;;19.10;;
3068;SDS011;1545;51.728;8.796;2023-05-10T01:56:33;35.07;;;19.53;;
3068;SDS011;1545;51.728;8.796;2023-05-10T01:59:02;27.40;;;17.40;;
3068;SDS011;1545;51.728;8.796;2023-05-10T02:01:31;30.20;;;16.87;;
3068;SDS011;1545;51.728;8.796;2023-05-10T02:03:59;21.73;;;12.33;;
3068;SDS011;1545;51.728;8.796;2023-05-10T02:06:26;20.90;;;10.70;;
3068;SDS011;1545;51.728;8.796;2023-05-10T02:08:52;15.07;;;10.20;;
3068;SDS011;1545;51.728;8.796;2023-05-10T02:11:20;17.30;;;11.03;;
3068;SDS011;1545;51.728;8.796;2023-05-10T02:13:47;24.70;;;13.73;;
3068;SDS011;1545;51.728;8.796;2023-05-10T02:16:15;23.30;;;14.10;;
3068;SDS011;1545;51.728;8.796;2023-05-10T02:18:43;26.37;;;15.60;;
3068;SDS011;1545;51.728;8.796;2023-05-10T02:21:10;26.40;;;15.50;;
3068;SDS011;1545;51.728;8.796;2023-05-10T02:23:36;32.03;;;16.07;;
3068;SDS011;1545;51.728;8.796;2023-05-10T02:26:02;25.77;;;15.63;;
3068;SDS011;1545;51.728;8.796;2023-05-10T02:28:30;25.33;;;15.47;;
3068;SDS011;1545;51.728;8.796;2023-05-10T02:30:58;29.23;;;16.80;;
3068;SDS011;1545;51.728;8.796;2023-05-10T02:33:23;32.60;;;17.87;;
3068;SDS011;1545;51.728;8.796;2023-05-10T02:35:50;31.87;;;19.53;;
3068;SDS011;1545;51.728;8.796;2023-05-10T02:38:17;30.77;;;18.50;;
3068;SDS011;1545;51.728;8.796;2023-05-10T02:40:45;30.27;;;18.47;;
3068;SDS011;1545;51.728;8.796;2023-05-10T02:43:12;32.87;;;18.20;;
3068;SDS011;1545;51.728;8.796;2023-05-10T02:45:40;27.30;;;17.20;;
3068;SDS011;1545;51.728;8.796;2023-05-10T02:48:08;31.57;;;17.37;;
3068;SDS011;1545;51.728;8.796;2023-05-10T02:50:33;29.83;;;16.80;;
3068;SDS011;1545;51.728;8.796;2023-05-10T02:53:01;30.93;;;17.07;;
3068;SDS011;1545;51.728;8.796;2023-05-10T02:55:31;30.30;;;18.13;;
3068;SDS011;1545;51.728;8.796;2023-05-10T02:58:00;31.47;;;17.90;;
3068;SDS011;1545;51.728;8.796;2023-05-10T03:00:26;31.03;;;16.93;;
3068;SDS011;1545;51.728;8.796;2023-05-10T03:02:52;33.93;;;17.90;;
3068;SDS011;1545;51.728;8.796;2023-05-10T03:05:18;32.70;;;18.20;;
3068;SDS011;1545;51.728;8.796;2023-05-10T03:07:44;33.27;;;17.63;;
3068;SDS011;1545;51.728;8.796;2023-05-10T03:10:11;26.43;;;15.67;;
3068;SDS011;1545;51.728;8.796;2023-05-10T03:17:55;28.03;;;16.30;;
3068;SDS011;1545;51.728;8.796;2023-05-10T03:20:31;30.10;;;16.10;;
3068;SDS011;1545;51.728;8.796;2023-05-10T03:23:07;27.03;;;16.63;;
3068;SDS011;1545;51.728;8.796;2023-05-10T03:25:48;26.17;;;16.60;;
3068;SDS011;1545;51.728;8.796;2023-05-10T03:28:14;25.20;;;15.77;;
3068;SDS011;1545;51.728;8.796;2023-05-10T03:30:41;28.60;;;16.20;;
3068;SDS011;1545;51.728;8.796;2023-05-10T03:33:08;23.60;;;15.40;;
3068;SDS011;1545;51.728;8.796;2023-05-10T03:35:34;26.83;;;16.83;;
3068;SDS011;1545;51.728;8.796;2023-05-10T03:37:59;26.60;;;16.40;;
3068;SDS011;1545;51.728;8.796;2023-05-10T03:40:26;31.53;;;16.10;;
3068;SDS011;1545;51.728;8.796;2023-05-10T03:42:54;29.23;;;16.30;;
3068;SDS011;1545;51.728;8.796;2023-05-10T03:45:20;25.43;;;16.40;;
3068;SDS011;1545;51.728;8.796;2023-05-10T03:47:45;21.53;;;14.43;;
3068;SDS011;1545;51.728;8.796;2023-05-10T03:50:11;24.97;;;14.37;;
3068;SDS011;1545;51.728;8.796;2023-05-10T03:52:36;22.23;;;14.63;;
3068;SDS011;1545;51.728;8.796;2023-05-10T03:55:04;23.47;;;14.27;;
3068;SDS011;1545;51.728;8.796;2023-05-10T03:57:30;20.43;;;12.83;;
3068;SDS011;1545;51.728;8.796;2023-05-10T03:59:55;20.50;;;12.37;;
3068;SDS011;1545;51.728;8.796;2023-05-10T04:02:21;19.80;;;11.60;;
3068;SDS011;1545;51.728;8.796;2023-05-10T04:04:46;17.73;;;11.67;;
3068;SDS011;1545;51.728;8.796;2023-05-10T04:07:13;16.87;;;11.10;;
3068;SDS011;1545;51.728;8.796;2023-05-10T04:09:38;18.17;;;11.33;;
3068;SDS011;1545;51.728;8.796;2023-05-10T04:12:05;20.83;;;13.07;;
3068;SDS011;1545;51.728;8.796;2023-05-10T04:14:31;21.93;;;12.30;;
3068;SDS011;1545;51.728;8.796;2023-05-10T04:16:56;22.10;;;13.17;;
3068;SDS011;1545;51.728;8.796;2023-05-10T04:19:22;23.23;;;12.57;;
3068;SDS011;1545;51.728;8.796;2023-05-10T04:21:48;23.13;;;13.30;;
3068;SDS011;1545;51.728;8.796;2023-05-10T04:24:13;22.97;;;12.67;;
3068;SDS011;1545;51.728;8.796;2023-05-10T04:26:39;23.50;;;13.60;;
3068;SDS011;1545;51.728;8.796;2023-05-10T04:29:04;24.47;;;13.57;;
3068;SDS011;1545;51.728;8.796;2023-05-10T04:31:30;23.40;;;13.33;;
3068;SDS011;1545;51.728;8.796;2023-05-10T04:33:55;23.50;;;13.67;;
3068;SDS011;1545;51.728;8.796;2023-05-10T04:36:21;23.97;;;12.90;;
3068;SDS011;1545;51.728;8.796;2023-05-10T04:38:46;25.33;;;13.00;;
3068;SDS011;1545;51.728;8.796;2023-05-10T04:41:12;26.13;;;13.63;;
3068;SDS011;1545;51.728;8.796;2023-05-10T04:43:37;22.90;;;13.47;;
3068;SDS011;1545;51.728;8.796;2023-05-10T04:46:03;25.90;;;13.30;;
3068;SDS011;1545;51.728;8.796;2023-05-10T04:48:29;22.93;;;14.30;;
3068;SDS011;1545;51.728;8.796;2023-05-10T04:50:55;22.83;;;13.70;;
3068;SDS011;1545;51.728;8.796;2023-05-10T04:53:21;20.00;;;12.50;;
3068;SDS011;1545;51.728;8.796;2023-05-10T04:55:47;18.50;;;12.30;;
3068;SDS011;1545;51.728;8.796;2023-05-10T04:58:13;16.80;;;11.13;;
3068;SDS011;1545;51.728;8.796;2023-05-10T05:00:38;15.80;;;9.80;;
3068;SDS011;1545;51.728;8.796;2023-05-10T05:03:04;13.60;;;8.70;;
3068;SDS011;1545;51.728;8.796;2023-05-10T05:05:30;11.97;;;8.50;;
3068;SDS011;1545;51.728;8.796;2023-05-10T05:07:55;11.33;;;7.83;;
3068;SDS011;1545;51.728;8.796;2023-05-10T05:10:21;9.07;;;6.53;;
3068;SDS011;1545;51.728;8.796;2023-05-10T05:12:46;11.40;;;6.50;;
3068;SDS011;1545;51.728;8.796;2023-05-10T05:15:12;7.50;;;5.57;;
3068;SDS011;1545;51.728;8.796;2023-05-10T05:17:37;9.63;;;5.60;;
3068;SDS011;1545;51.728;8.796;2023-05-10T05:20:03;9.37;;;5.97;;
3068;SDS011;1545;51.728;8.796;2023-05-10T05:22:29;9.30;;;6.40;;
3068;SDS011;1545;51.728;8.796;2023-05-10T05:24:55;9.03;;;5.67;;
3068;SDS011;1545;51.728;8.796;2023-05-10T05:27:21;8.70;;;6.13;;
3068;SDS011;1545;51.728;8.796;2023-05-10T05:29:49;9.13;;;6.10;;
3068;SDS011;1545;51.728;8.796;2023-05-10T05:32:15;10.90;;;7.37;;
3068;SDS011;1545;51.728;8.796;2023-05-10T05:34:41;11.33;;;7.53;;
3068;SDS011;1545;51.728;8.796;2023-05-10T05:37:12;11.33;;;7.47;;
3068;SDS011;1545;51.728;8.796;2023-05-10T05:39:41;10.80;;;7.50;;
3068;SDS011;1545;51.728;8.796;2023-05-10T05:42:08;12.13;;;8.40;;
3068;SDS011;1545;51.728;8.796;2023-05-10T05:44:34;12.00;;;7.80;;
3068;SDS011;1545;51.728;8.796;2023-05-10T05:46:59;9.67;;;7.10;;
3068;SDS011;1545;51.728;8.796;2023-05-10T05:49:25;10.67;;;6.90;;
3068;SDS011;1545;51.728;8.796;2023-05-10T05:51:50;10.63;;;7.17;;
3068;SDS011;1545;51.728;8.796;2023-05-10T05:54:16;12.33;;;7.60;;
3068;SDS011;1545;51.728;8.796;2023-05-10T05:56:41;10.67;;;7.50;;
3068;SDS011;1545;51.728;8.796;2023-05-10T05:59:07;11.23;;;7.70;;
3068;SDS011;1545;51.728;8.796;2023-05-10T06:01:33;11.77;;;8.23;;
3068;SDS011;1545;51.728;8.796;2023-05-10T06:03:58;12.17;;;8.57;;
3068;SDS011;1545;51.728;8.796;2023-05-10T06:06:24;13.37;;;9.63;;
3068;SDS011;1545;51.728;8.796;2023-05-10T06:08:49;16.70;;;9.60;;
3068;SDS011;1545;51.728;8.796;2023-05-10T06:11:15;16.30;;;9.77;;
3068;SDS011;1545;51.728;8.796;2023-05-10T06:13:40;14.20;;;9.60;;
3068;SDS011;1545;51.728;8.796;2023-05-10T06:16:07;11.23;;;8.73;;
3068;SDS011;1545;51.728;8.796;2023-05-10T06:18:32;11.93;;;9.00;;
3068;SDS011;1545;51.728;8.796;2023-05-10T06:20:58;10.23;;;7.30;;
3068;SDS011;1545;51.728;8.796;2023-05-10T06:23:24;19.07;;;7.40;;
3068;SDS011;1545;51.728;8.796;2023-05-10T06:25:50;11.33;;;7.43;;
3068;SDS011;1545;51.728;8.796;2023-05-10T06:28:16;22.40;;;7.70;;
3068;SDS011;1545;51.728;8.796;2023-05-10T06:30:41;13.40;;;7.17;;
3068;SDS011;1545;51.728;8.796;2023-05-10T06:33:07;9.70;;;6.13;;
3068;SDS011;1545;51.728;8.796;2023-05-10T06:35:33;13.10;;;6.40;;
3068;SDS011;1545;51.728;8.796;2023-05-10T06:37:58;9.27;;;5.70;;
3068;SDS011;1545;51.728;8.796;2023-05-10T06:40:24;9.63;;;5.97;;
3068;SDS011;1545;51.728;8.796;2023-05-10T06:42:49;9.33;;;5.53;;
3068;SDS011;1545;51.728;8.796;2023-05-10T06:45:15;11.63;;;5.07;;
3068;SDS011;1545;51.728;8.796;2023-05-10T06:47:41;7.73;;;4.90;;
3068;SDS011;1545;51.728;8.796;2023-05-10T06:50:10;7.20;;;5.30;;
3068;SDS011;1545;51.728;8.796;2023-05-10T06:52:38;7.13;;;5.40;;
3068;SDS011;1545;51.728;8.796;2023-05-10T06:55:04;7.43;;;5.47;;
3068;SDS011;1545;51.728;8.796;2023-05-10T06:57:30;12.73;;;5.80;;
3068;SDS011;1545;51.728;8.796;2023-05-10T06:59:57;7.90;;;5.80;;
3068;SDS011;1545;51.728;8.796;2023-05-10T07:02:25;9.33;;;5.70;;
3068;SDS011;1545;51.728;8.796;2023-05-10T07:04:51;8.87;;;5.80;;
3068;SDS011;1545;51.728;8.796;2023-05-10T07:07:17;9.97;;;6.00;;
3068;SDS011;1545;51.728;8.796;2023-05-10T07:09:43;7.67;;;5.57;;
3068;SDS011;1545;51.728;8.796;2023-05-10T07:12:08;8.87;;;5.60;;
3068;SDS011;1545;51.728;8.796;2023-05-10T07:14:34;7.07;;;5.30;;
3068;SDS011;1545;51.728;8.796;2023-05-10T07:17:00;7.70;;;5.63;;
3068;SDS011;1545;51.728;8.796;2023-05-10T07:19:25;8.17;;;6.47;;
3068;SDS011;1545;51.728;8.796;2023-05-10T07:21:51;11.67;;;7.50;;
3068;SDS011;1545;51.728;8.796;2023-05-10T07:24:17;9.33;;;6.90;;
3068;SDS011;1545;51.728;8.796;2023-05-10T07:26:42;13.60;;;7.10;;
3068;SDS011;1545;51.728;8.796;2023-05-10T07:29:08;11.03;;;6.87;;
3068;SDS011;1545;51.728;8.796;2023-05-10T07:31:33;12.80;;;6.73;;
3068;SDS011;1545;51.728;8.796;2023-05-10T07:33:58;7.83;;;5.90;;
3068;SDS011;1545;51.728;8.796;2023-05-10T07:36:24;8.87;;;6.20;;
3068;SDS011;1545;51.728;8.796;2023-05-10T07:38:50;11.77;;;5.80;;
3068;SDS011;1545;51.728;8.796;2023-05-10T07:41:16;10.97;;;6.00;;
3068;SDS011;1545;51.728;8.796;2023-05-10T07:43:41;6.83;;;5.10;;
3068;SDS011;1545;51.728;8.796;2023-05-10T07:46:07;8.07;;;5.50;;
3068;SDS011;1545;51.728;8.796;2023-05-10T07:48:34;7.33;;;5.27;;
3068;SDS011;1545;51.728;8.796;2023-05-10T07:51:01;8.90;;;5.20;;
3068;SDS011;1545;51.728;8.796;2023-05-10T07:53:27;11.90;;;5.83;;
3068;SDS011;1545;51.728;8.796;2023-05-10T07:55:53;7.93;;;5.50;;
3068;SDS011;1545;51.728;8.796;2023-05-10T07:58:21;9.27;;;5.83;;
3068;SDS011;1545;51.728;8.796;2023-05-10T08:00:47;12.47;;;5.57;;
3068;SDS011;1545;51.728;8.796;2023-05-10T08:03:14;11.27;;;6.03;;
3068;SDS011;1545;51.728;8.796;2023-05-10T08:05:39;14.50;;;7.63;;
3068;SDS011;1545;51.728;8.796;2023-05-10T08:08:05;12.90;;;7.03;;
3068;SDS011;1545;51.728;8.796;2023-05-10T08:10:31;11.43;;;6.97;;
3068;SDS011;1545;51.728;8.796;2023-05-10T08:12:56;14.40;;;7.67;;
3068;SDS011;1545;51.728;8.796;2023-05-10T08:15:23;11.23;;;6.90;;
3068;SDS011;1545;51.728;8.796;2023-05-10T08:17:50;17.47;;;7.37;;
3068;SDS011;1545;51.728;8.796;2023-05-10T08:20:16;11.97;;;7.10;;
3068;SDS011;1545;51.728;8.796;2023-05-10T08:22:43;13.10;;;7.67;;
3068;SDS011;1545;51.728;8.796;2023-05-10T08:25:12;13.97;;;8.33;;
3068;SDS011;1545;51.728;8.796;2023-05-10T08:27:37;12.67;;;7.80;;
3068;SDS011;1545;51.728;8.796;2023-05-10T08:30:03;14.40;;;8.67;;
3068;SDS011;1545;51.728;8.796;2023-05-10T08:32:29;15.30;;;9.80;;
3068;SDS011;1545;51.728;8.796;2023-05-10T08:34:54;14.87;;;9.30;;
3068;SDS011;1545;51.728;8.796;2023-05-10T08:37:22;13.10;;;9.07;;
3068;SDS011;1545;51.728;8.796;2023-05-10T08:39:48;15.33;;;9.97;;
3068;SDS011;1545;51.728;8.796;2023-05-10T08:42:15;18.53;;;12.47;;
3068;SDS011;1545;51.728;8.796;2023-05-10T08:44:45;23.60;;;13.37;;
3068;SDS011;1545;51.728;8.796;2023-05-10T08:47:12;24.33;;;15.80;;
3068;SDS011;1545;51.728;8.796;2023-05-10T08:49:41;30.13;;;15.50;;
3068;SDS011;1545;51.728;8.796;2023-05-10T08:52:07;27.87;;;16.53;;
3068;SDS011;1545;51.728;8.796;2023-05-10T08:54:36;30.30;;;17.07;;
3068;SDS011;1545;51.728;8.796;2023-05-10T08:57:02;28.10;;;15.77;;
3068;SDS011;1545;51.728;8.796;2023-05-10T08:59:28;31.27;;;16.00;;
3068;SDS011;1545;51.728;8.796;2023-05-10T09:01:53;27.37;;;17.03;;
3068;SDS011;1545;51.728;8.796;2023-05-10T09:04:22;29.70;;;18.50;;
3068;SDS011;1545;51.728;8.796;2023-05-10T09:06:48;24.63;;;15.87;;
3068;SDS011;1545;51.728;8.796;2023-05-10T09:09:13;30.23;;;17.13;;
3068;SDS011;1545;51.728;8.796;2023-05-10T09:11:41;29.60;;;17.53;;
3068;SDS011;1545;51.728;8.796;2023-05-10T09:14:07;29.00;;;18.33;;
3068;SDS011;1545;51.728;8.796;2023-05-10T09:16:34;29.70;;;18.33;;
3068;SDS011;1545;51.728;8.796;2023-05-10T09:18:59;33.23;;;18.33;;
3068;SDS011;1545;51.728;8.796;2023-05-10T09:21:25;29.03;;;17.87;;
3068;SDS011;1545;51.728;8.796;2023-05-10T09:23:51;31.30;;;18.90;;
3068;SDS011;1545;51.728;8.796;2023-05-10T09:26:21;32.40;;;17.83;;
3068;SDS011;1545;51.728;8.796;2023-05-10T09:28:55;27.47;;;17.90;;
3068;SDS011;1545;51.728;8.796;2023-05-10T09:31:22;30.23;;;18.87;;
3068;SDS011;1545;51.728;8.796;2023-05-10T09:33:48;30.20;;;18.67;;
3068;SDS011;1545;51.728;8.796;2023-05-10T09:36:15;30.40;;;18.90;;
3068;SDS011;1545;51.728;8.796;2023-05-10T09:38:48;30.70;;;19.03;;
3068;SDS011;1545;51.728;8.796;2023-05-10T09:41:16;31.73;;;19.17;;
3068;SDS011;1545;51.728;8.796;2023-05-10T09:43:43;31.03;;;20.40;;
3068;SDS011;1545;51.728;8.796;2023-05-10T09:46:09;31.37;;;20.77;;
3068;SDS011;1545;51.728;8.796;2023-05-10T09:48:39;31.27;;;20.03;;
3068;SDS011;1545;51.728;8.796;2023-05-10T09:51:22;31.77;;;20.23;;
3068;SDS011;1545;51.728;8.796;2023-05-10T09:53:48;33.03;;;20.03;;
3068;SDS011;1545;51.728;8.796;2023-05-10T09:56:33;35.90;;;20.00;;
3068;SDS011;1545;51.728;8.796;2023-05-10T09:59:05;42.20;;;21.50;;
3068;SDS011;1545;51.728;8.796;2023-05-10T10:01:31;36.87;;;21.10;;
3068;SDS011;1545;51.728;8.796;2023-05-10T10:03:58;32.90;;;19.77;;
3068;SDS011;1545;51.728;8.796;2023-05-10T10:06:23;33.53;;;19.43;;
3068;SDS011;1545;51.728;8.796;2023-05-10T10:08:53;32.13;;;18.27;;
3068;SDS011;1545;51.728;8.796;2023-05-10T10:11:19;30.33;;;19.37;;
3068;SDS011;1545;51.728;8.796;2023-05-10T10:13:45;32.17;;;19.03;;
3068;SDS011;1545;51.728;8.796;2023-05-10T10:16:11;31.13;;;20.57;;
3068;SDS011;1545;51.728;8.796;2023-05-10T10:18:36;36.30;;;20.83;;
3068;SDS011;1545;51.728;8.796;2023-05-10T10:21:05;34.67;;;20.50;;
3068;SDS011;1545;51.728;8.796;2023-05-10T10:23:33;38.30;;;22.33;;
3068;SDS011;1545;51.728;8.796;2023-05-10T10:26:00;34.67;;;20.80;;
3068;SDS011;1545;51.728;8.796;2023-05-10T10:28:47;36.10;;;20.47;;
3068;SDS011;1545;51.728;8.796;2023-05-10T10:34:46;30.53;;;20.27;;
3068;SDS011;1545;51.728;8.796;2023-05-10T10:37:04;32.73;;;21.23;;
3068;SDS011;1545;51.728;8.796;2023-05-10T10:39:31;33.37;;;20.23;;
3068;SDS011;1545;51.728;8.796;2023-05-10T10:41:57;39.93;;;20.97;;
3068;SDS011;1545;51.728;8.796;2023-05-10T10:44:24;32.87;;;21.67;;
3068;SDS011;1545;51.728;8.796;2023-05-10T10:47:05;34.67;;;20.17;;
3068;SDS011;1545;51.728;8.796;2023-05-10T10:52:25;33.20;;;20.47;;
3068;SDS011;1545;51.728;8.796;2023-05-10T10:55:07;34.27;;;22.50;;
3068;SDS011;1545;51.728;8.796;2023-05-10T11:07:54;36.43;;;22.77;;
3068;SDS011;1545;51.728;8.796;2023-05-10T11:10:21;35.00;;;21.27;;
3068;SDS011;1545;51.728;8.796;2023-05-10T11:13:04;36.07;;;22.77;;
3068;SDS011;1545;51.728;8.796;2023-05-10T11:15:31;37.67;;;22.70;;
3068;SDS011;1545;51.728;8.796;2023-05-10T11:17:59;39.07;;;23.07;;
3068;SDS011;1545;51.728;8.796;2023-05-10T11:20:28;40.33;;;22.70;;
3068;SDS011;1545;51.728;8.796;2023-05-10T11:23:12;39.40;;;20.43;;
3068;SDS011;1545;51.728;8.796;2023-05-10T11:25:44;28.47;;;17.73;;
3068;SDS011;1545;51.728;8.796;2023-05-10T11:28:12;29.60;;;19.07;;
3068;SDS011;1545;51.728;8.796;2023-05-10T11:30:38;25.07;;;18.13;;
3068;SDS011;1545;51.728;8.796;2023-05-10T11:33:04;34.97;;;17.60;;
3068;SDS011;1545;51.728;8.796;2023-05-10T11:35:31;30.97;;;19.43;;
3068;SDS011;1545;51.728;8.796;2023-05-10T11:38:05;28.50;;;18.30;;
3068;SDS011;1545;51.728;8.796;2023-05-10T11:40:32;30.63;;;19.40;;
3068;SDS011;1545;51.728;8.796;2023-05-10T11:42:57;41.17;;;20.47;;
3068;SDS011;1545;51.728;8.796;2023-05-10T11:45:24;40.20;;;22.53;;
3068;SDS011;1545;51.728;8.796;2023-05-10T11:47:50;43.10;;;23.33;;
3068;SDS011;1545;51.728;8.796;2023-05-10T11:50:16;40.67;;;25.50;;
3068;SDS011;1545;51.728;8.796;2023-05-10T11:52:42;40.53;;;24.93;;
3068;SDS011;1545;51.728;8.796;2023-05-10T11:55:08;40.27;;;24.43;;
3068;SDS011;1545;51.728;8.796;2023-05-10T11:57:33;38.67;;;24.60;;
3068;SDS011;1545;51.728;8.796;2023-05-10T12:00:00;39.10;;;22.90;;
3068;SDS011;1545;51.728;8.796;2023-05-10T12:02:28;35.80;;;22.03;;
3068;SDS011;1545;51.728;8.796;2023-05-10T12:04:54;32.53;;;20.87;;
3068;SDS011;1545;51.728;8.796;2023-05-10T12:07:20;28.87;;;17.80;;
3068;SDS011;1545;51.728;8.796;2023-05-10T12:12:43;32.33;;;19.10;;
3068;SDS011;1545;51.728;8.796;2023-05-10T12:15:16;36.57;;;20.90;;
3068;SDS011;1545;51.728;8.796;2023-05-10T12:17:46;32.87;;;19.93;;
3068;SDS011;1545;51.728;8.796;2023-05-10T12:20:13;37.57;;;20.67;;
3068;SDS011;1545;51.728;8.796;2023-05-10T12:23:00;29.20;;;19.03;;
3068;SDS011;1545;51.728;8.796;2023-05-10T12:25:35;37.27;;;21.30;;
3068;SDS011;1545;51.728;8.796;2023-05-10T12:28:08;38.97;;;21.73;;
3068;SDS011;1545;51.728;8.796;2023-05-10T12:30:35;42.70;;;22.17;;
3068;SDS011;1545;51.728;8.796;2023-05-10T12:33:02;33.00;;;21.27;;
3068;SDS011;1545;51.728;8.796;2023-05-10T12:35:51;30.07;;;18.03;;
3068;SDS011;1545;51.728;8.796;2023-05-10T12:38:34;16.97;;;9.50;;
3068;SDS011;1545;51.728;8.796;2023-05-10T12:41:03;12.80;;;7.40;;
3068;SDS011;1545;51.728;8.796;2023-05-10T12:43:34;9.20;;;5.93;;
3068;SDS011;1545;51.728;8.796;2023-05-10T12:46:10;9.13;;;6.23;;
3068;SDS011;1545;51.728;8.796;2023-05-10T12:48:37;10.97;;;6.30;;
3068;SDS011;1545;51.728;8.796;2023-05-10T12:51:04;8.40;;;5.10;;
3068;SDS011;1545;51.728;8.796;2023-05-10T12:53:33;5.80;;;3.90;;
3068;SDS011;1545;51.728;8.796;2023-05-10T12:55:59;8.10;;;4.23;;
3068;SDS011;1545;51.728;8.796;2023-05-10T12:58:24;8.60;;;5.00;;
3068;SDS011;1545;51.728;8.796;2023-05-10T13:00:50;8.27;;;4.93;;
3068;SDS011;1545;51.728;8.796;2023-05-10T13:03:16;8.13;;;4.73;;
3068;SDS011;1545;51.728;8.796;2023-05-10T13:05:42;6.23;;;4.57;;
3068;SDS011;1545;51.728;8.796;2023-05-10T13:08:07;6.03;;;4.13;;
3068;SDS011;1545;51.728;8.796;2023-05-10T13:10:34;5.27;;;3.83;;
3068;SDS011;1545;51.728;8.796;2023-05-10T13:13:00;7.97;;;4.23;;
3068;SDS011;1545;51.728;8.796;2023-05-10T13:15:26;6.30;;;4.20;;
3068;SDS011;1545;51.728;8.796;2023-05-10T13:17:52;6.53;;;4.70;;
3068;SDS011;1545;51.728;8.796;2023-05-10T13:20:18;8.23;;;4.60;;
3068;SDS011;1545;51.728;8.796;2023-05-10T13:22:43;5.40;;;4.10;;
3068;SDS011;1545;51.728;8.796;2023-05-10T13:25:09;7.90;;;4.43;;
3068;SDS011;1545;51.728;8.796;2023-05-10T13:27:36;10.10;;;5.63;;
3068;SDS011;1545;51.728;8.796;2023-05-10T13:30:02;7.17;;;5.23;;
3068;SDS011;1545;51.728;8.796;2023-05-10T13:32:29;8.30;;;5.30;;
3068;SDS011;1545;51.728;8.796;2023-05-10T13:34:55;6.80;;;4.80;;
3068;SDS011;1545;51.728;8.796;2023-05-10T13:37:20;6.70;;;4.83;;
3068;SDS011;1545;51.728;8.796;2023-05-10T13:39:46;10.87;;;4.87;;
3068;SDS011;1545;51.728;8.796;2023-05-10T13:42:12;7.93;;;5.40;;
3068;SDS011;1545;51.728;8.796;2023-05-10T13:44:38;9.03;;;5.87;;
3068;SDS011;1545;51.728;8.796;2023-05-10T13:47:04;11.13;;;5.60;;
3068;SDS011;1545;51.728;8.796;2023-05-10T13:49:29;7.23;;;5.43;;
3068;SDS011;1545;51.728;8.796;2023-05-10T13:51:55;10.57;;;6.00;;
3068;SDS011;1545;51.728;8.796;2023-05-10T13:54:20;6.83;;;5.50;;
3068;SDS011;1545;51.728;8.796;2023-05-10T13:56:47;11.97;;;8.10;;
3068;SDS011;1545;51.728;8.796;2023-05-10T13:59:13;14.50;;;7.67;;
3068;SDS011;1545;51.728;8.796;2023-05-10T14:01:39;13.00;;;6.90;;
3068;SDS011;1545;51.728;8.796;2023-05-10T14:04:05;9.83;;;6.40;;
3068;SDS011;1545;51.728;8.796;2023-05-10T14:06:31;12.23;;;7.67;;
3068;SDS011;1545;51.728;8.796;2023-05-10T14:08:56;11.47;;;7.63;;
3068;SDS011;1545;51.728;8.796;2023-05-10T14:11:22;10.57;;;7.47;;
3068;SDS011;1545;51.728;8.796;2023-05-10T14:13:48;12.43;;;7.10;;
3068;SDS011;1545;51.728;8.796;2023-05-10T14:16:13;15.13;;;8.57;;
3068;SDS011;1545;51.728;8.796;2023-05-10T14:18:39;14.27;;;9.60;;
3068;SDS011;1545;51.728;8.796;2023-05-10T14:21:05;23.33;;;12.10;;
3068;SDS011;1545;51.728;8.796;2023-05-10T14:23:31;24.00;;;13.57;;
3068;SDS011;1545;51.728;8.796;2023-05-10T14:25:56;18.93;;;10.73;;
3068;SDS011;1545;51.728;8.796;2023-05-10T14:28:22;14.77;;;8.07;;
3068;SDS011;1545;51.728;8.796;2023-05-10T14:30:48;11.70;;;7.50;;
3068;SDS011;1545;51.728;8.796;2023-05-10T14:33:14;18.10;;;9.40;;
3068;SDS011;1545;51.728;8.796;2023-05-10T14:35:39;21.23;;;11.60;;
3068;SDS011;1545;51.728;8.796;2023-05-10T14:38:05;24.90;;;13.80;;
3068;SDS011;1545;51.728;8.796;2023-05-10T14:40:31;30.47;;;16.07;;
3068;SDS011;1545;51.728;8.796;2023-05-10T14:42:56;34.23;;;17.33;;
3068;SDS011;1545;51.728;8.796;2023-05-10T14:45:22;33.20;;;17.43;;
3068;SDS011;1545;51.728;8.796;2023-05-10T14:47:48;36.33;;;16.50;;
3068;SDS011;1545;51.728;8.796;2023-05-10T14:50:14;30.30;;;16.83;;
3068;SDS011;1545;51.728;8.796;2023-05-10T14:52:41;28.63;;;14.00;;
3068;SDS011;1545;51.728;8.796;2023-05-10T14:55:07;31.27;;;15.00;;
3068;SDS011;1545;51.728;8.796;2023-05-10T14:57:33;26.97;;;15.20;;
3068;SDS011;1545;51.728;8.796;2023-05-10T14:59:58;26.43;;;14.60;;
3068;SDS011;1545;51.728;8.796;2023-05-10T15:02:24;25.60;;;14.77;;
3068;SDS011;1545;51.728;8.796;2023-05-10T15:04:50;22.10;;;13.47;;
3068;SDS011;1545;51.728;8.796;2023-05-10T15:07:15;21.80;;;14.50;;
3068;SDS011;1545;51.728;8.796;2023-05-10T15:09:43;28.03;;;15.43;;
3068;SDS011;1545;51.728;8.796;2023-05-10T15:12:09;33.27;;;15.73;;
3068;SDS011;1545;51.728;8.796;2023-05-10T15:14:34;28.40;;;15.30;;
3068;SDS011;1545;51.728;8.796;2023-05-10T15:17:01;28.87;;;16.17;;
3068;SDS011;1545;51.728;8.796;2023-05-10T15:19:27;35.63;;;18.10;;
3068;SDS011;1545;51.728;8.796;2023-05-10T15:21:54;27.83;;;16.97;;
3068;SDS011;1545;51.728;8.796;2023-05-10T15:24:20;31.97;;;15.77;;
3068;SDS011;1545;51.728;8.796;2023-05-10T15:26:46;25.60;;;16.47;;
3068;SDS011;1545;51.728;8.796;2023-05-10T15:29:11;26.03;;;15.03;;
3068;SDS011;1545;51.728;8.796;2023-05-10T15:31:37;19.13;;;11.70;;
3068;SDS011;1545;51.728;8.796;2023-05-10T15:34:04;19.77;;;10.93;;